createdAt,value
2022-10-07T00:02:11.909Z,3.97
2022-10-07T00:05:14.306Z,3.00
2022-10-07T00:08:17.794Z,2.45
2022-10-07T00:11:21.674Z,4.20
2022-10-07T00:14:23.811Z,2.67
2022-10-07T00:17:26.070Z,2.65
2022-10-07T00:20:28.314Z,2.58
2022-10-07T00:23:31.876Z,3.00
2022-10-07T00:26:35.439Z,2.85
2022-10-07T00:29:37.634Z,2.80
2022-10-07T00:32:39.804Z,4.00
2022-10-07T00:35:42.076Z,2.75
2022-10-07T00:38:45.623Z,2.72
2022-10-07T00:41:51.904Z,3.13
2022-10-07T00:44:54.035Z,2.05
2022-10-07T00:47:56.396Z,3.20
2022-10-07T00:51:00.834Z,3.05
2022-10-07T00:54:07.939Z,2.67
2022-10-07T00:57:10.730Z,2.92
2022-10-07T01:00:13.703Z,2.35
2022-10-07T01:03:15.909Z,2.75
2022-10-07T01:06:18.109Z,2.83
2022-10-07T01:09:21.691Z,3.13
2022-10-07T01:12:29.023Z,3.22
2022-10-07T01:15:36.062Z,2.45
2022-10-07T01:18:42.588Z,3.42
2022-10-07T01:21:54.587Z,2.08
2022-10-07T01:25:18.055Z,2.35
2022-10-07T01:28:23.745Z,3.67
2022-10-07T01:31:30.624Z,2.67
2022-10-07T01:34:34.704Z,3.72
2022-10-07T01:37:40.771Z,2.45
2022-10-07T01:40:45.614Z,2.38
2022-10-07T01:43:52.577Z,2.55
2022-10-07T01:46:55.321Z,2.40
2022-10-07T01:49:57.696Z,2.47
2022-10-07T01:53:13.049Z,2.53
2022-10-07T01:56:31.334Z,1.98
2022-10-07T01:59:48.013Z,2.10
2022-10-07T02:03:07.967Z,1.80
2022-10-07T02:06:18.705Z,2.17
2022-10-07T02:09:25.843Z,1.90
2022-10-07T02:12:35.882Z,2.15
2022-10-07T02:15:43.228Z,3.25
2022-10-07T02:18:50.450Z,2.38
2022-10-07T02:21:57.079Z,2.42
2022-10-07T02:24:59.771Z,2.47
2022-10-07T02:28:06.426Z,1.60
2022-10-07T02:31:15.751Z,2.00
2022-10-07T02:34:20.440Z,2.03
2022-10-07T02:37:27.297Z,1.88
2022-10-07T02:40:34.005Z,2.30
2022-10-07T02:43:39.712Z,2.30
2022-10-07T02:46:46.496Z,2.00
2022-10-07T02:49:53.085Z,2.47
2022-10-07T02:52:56.258Z,2.30
2022-10-07T02:55:59.614Z,2.42
2022-10-07T02:59:02.229Z,2.35
2022-10-07T03:02:10.691Z,2.40
2022-10-07T03:05:14.491Z,2.42
2022-10-07T03:08:16.838Z,2.25
2022-10-07T03:11:19.036Z,2.20
2022-10-07T03:14:24.654Z,2.55
2022-10-07T03:17:28.310Z,2.63
2022-10-07T03:20:32.443Z,2.25
2022-10-07T03:23:35.172Z,2.42
2022-10-07T03:26:37.482Z,2.78
2022-10-07T03:29:39.675Z,2.58
2022-10-07T03:32:44.346Z,2.50
2022-10-07T03:35:46.728Z,3.35
2022-10-07T03:38:49.032Z,2.03
2022-10-07T03:41:52.068Z,2.60
2022-10-07T03:44:54.340Z,5.03
2022-10-07T03:47:58.051Z,3.67
2022-10-07T03:51:01.556Z,2.70
2022-10-07T03:54:06.614Z,2.42
2022-10-07T03:57:29.922Z,2.65
2022-10-07T04:00:34.768Z,2.35
2022-10-07T04:03:38.388Z,2.80
2022-10-07T04:06:41.592Z,2.45
2022-10-07T04:09:46.391Z,4.50
2022-10-07T04:12:48.850Z,2.47
2022-10-07T04:15:51.373Z,2.60
2022-10-07T04:18:56.628Z,2.53
2022-10-07T04:22:02.905Z,3.47
2022-10-07T04:25:39.556Z,3.13
2022-10-07T04:28:49.173Z,3.08
2022-10-07T04:31:58.100Z,3.00
2022-10-07T04:35:03.704Z,2.53
2022-10-07T04:38:08.570Z,4.03
2022-10-07T04:41:12.007Z,3.10
2022-10-07T04:44:15.849Z,2.03
2022-10-07T04:47:35.571Z,2.35
2022-10-07T04:50:40.020Z,2.80
2022-10-07T04:53:44.505Z,3.28
2022-10-07T04:56:48.696Z,4.00
2022-10-07T04:59:51.220Z,2.40
2022-10-07T05:02:56.806Z,3.47
2022-10-07T05:06:05.780Z,2.47
2022-10-07T05:09:10.183Z,2.65
2022-10-07T05:12:17.678Z,2.72
2022-10-07T05:15:21.008Z,2.08
2022-10-07T05:18:26.449Z,2.35
2022-10-07T05:21:33.470Z,2.85
2022-10-07T05:24:36.713Z,2.00
2022-10-07T05:27:40.288Z,2.97
2022-10-07T05:30:42.872Z,2.03
2022-10-07T05:33:46.071Z,2.67
2022-10-07T05:36:49.794Z,2.55
2022-10-07T05:39:54.080Z,3.13
2022-10-07T05:42:56.907Z,2.97
2022-10-07T05:46:01.639Z,3.03
2022-10-07T05:49:05.790Z,2.63
2022-10-07T05:52:14.009Z,2.88
2022-10-07T05:55:18.548Z,2.30
2022-10-07T05:58:22.695Z,2.35
2022-10-07T06:01:27.996Z,2.10
2022-10-07T06:04:38.212Z,2.90
2022-10-07T06:07:43.257Z,2.95
2022-10-07T06:11:08.664Z,2.47
2022-10-07T06:14:12.261Z,2.35
2022-10-07T06:17:14.763Z,2.13
2022-10-07T06:20:20.076Z,3.05
2022-10-07T06:23:26.270Z,2.25
2022-10-07T06:26:28.653Z,2.78
2022-10-07T06:29:31.110Z,4.72
2022-10-07T06:32:34.025Z,2.53
2022-10-07T06:35:36.768Z,2.72
2022-10-07T06:38:43.994Z,2.08
2022-10-07T06:41:46.332Z,2.78
2022-10-07T06:45:01.681Z,2.10
2022-10-07T06:48:04.071Z,2.17
2022-10-07T06:51:06.718Z,2.08
2022-10-07T06:54:11.231Z,2.33
2022-10-07T06:57:40.421Z,2.63
2022-10-07T07:00:36.604Z,2.33
2022-10-07T07:03:40.379Z,2.15
2022-10-07T07:06:43.011Z,1.92
2022-10-07T07:09:47.114Z,2.40
2022-10-07T07:12:50.304Z,2.20
2022-10-07T07:15:57.283Z,2.45
2022-10-07T07:19:08.678Z,2.75
2022-10-07T07:25:17.372Z,2.50
2022-10-07T07:28:19.938Z,2.85
2022-10-07T07:31:22.560Z,2.28
2022-10-07T07:34:25.682Z,2.67
2022-10-07T07:37:30.097Z,2.67
2022-10-07T07:40:37.712Z,2.53
2022-10-07T07:43:43.751Z,2.60
2022-10-07T07:46:48.425Z,2.97
2022-10-07T07:49:51.275Z,2.60
2022-10-07T07:53:01.920Z,3.00
2022-10-07T07:56:05.999Z,2.53
2022-10-07T07:59:08.877Z,2.67
2022-10-07T08:02:12.328Z,2.45
2022-10-07T08:05:21.408Z,2.88
2022-10-07T08:08:26.792Z,3.40
2022-10-07T08:11:32.798Z,2.58
2022-10-07T08:14:37.799Z,2.72
2022-10-07T08:17:40.905Z,2.55
2022-10-07T08:20:43.642Z,3.40
2022-10-07T08:23:48.025Z,3.17
2022-10-07T08:26:51.802Z,3.03
2022-10-07T08:29:57.174Z,2.80
2022-10-07T08:33:01.558Z,2.22
2022-10-07T08:36:05.023Z,2.78
2022-10-07T08:39:13.099Z,2.55
2022-10-07T08:42:25.907Z,2.75
2022-10-07T08:45:31.748Z,2.90
2022-10-07T08:48:38.860Z,2.65
2022-10-07T08:51:46.719Z,3.60
2022-10-07T08:54:49.453Z,2.42
2022-10-07T08:58:06.141Z,2.60
2022-10-07T09:01:19.217Z,2.63
2022-10-07T09:04:30.994Z,2.38
2022-10-07T09:07:35.761Z,2.55
2022-10-07T09:10:40.515Z,3.00
2022-10-07T09:13:47.266Z,2.45
2022-10-07T09:16:52.445Z,2.47
2022-10-07T09:19:59.178Z,2.35
2022-10-07T09:23:01.949Z,2.83
2022-10-07T09:26:10.441Z,2.88
2022-10-07T09:29:13.971Z,2.13
2022-10-07T09:32:18.787Z,2.40
2022-10-07T09:35:23.089Z,2.80
2022-10-07T09:38:31.840Z,2.28
2022-10-07T09:41:36.237Z,2.42
2022-10-07T09:44:40.113Z,2.45
2022-10-07T09:47:42.418Z,1.85
2022-10-07T09:50:46.772Z,2.10
2022-10-07T09:53:57.846Z,2.00
2022-10-07T09:57:02.947Z,1.83
2022-10-07T10:00:24.259Z,1.60
2022-10-07T10:03:29.546Z,2.33
2022-10-07T10:06:31.989Z,2.40
2022-10-07T10:09:35.047Z,1.50
2022-10-07T10:12:45.601Z,1.67
2022-10-07T10:15:49.399Z,1.60
2022-10-07T10:18:54.630Z,4.75
2022-10-07T10:21:59.018Z,1.73
2022-10-07T10:25:19.903Z,1.30
2022-10-07T10:28:31.385Z,1.33
2022-10-07T10:31:45.672Z,1.42
2022-10-07T10:34:54.247Z,4.60
2022-10-07T10:38:05.310Z,1.70
2022-10-07T10:41:17.287Z,1.35
2022-10-07T10:44:32.583Z,1.45
2022-10-07T10:47:45.118Z,0.82
2022-10-07T10:50:53.315Z,1.20
2022-10-07T10:54:05.599Z,1.35
2022-10-07T10:57:14.805Z,1.00
2022-10-07T11:00:19.240Z,0.88
2022-10-07T11:03:37.742Z,0.88
2022-10-07T11:06:42.066Z,1.38
2022-10-07T11:09:48.273Z,1.27
2022-10-07T11:12:54.685Z,0.90
2022-10-07T11:16:00.563Z,1.15
2022-10-07T11:19:06.607Z,1.30
2022-10-07T11:22:13.512Z,0.80
2022-10-07T11:25:24.586Z,0.90
2022-10-07T11:28:29.026Z,0.82
2022-10-07T11:31:35.248Z,1.35
2022-10-07T11:34:44.031Z,1.00
2022-10-07T11:37:52.569Z,1.00
2022-10-07T11:40:57.109Z,0.98
2022-10-07T11:44:02.796Z,0.70
2022-10-07T11:47:07.002Z,0.80
2022-10-07T11:50:15.670Z,2.10
2022-10-07T11:53:22.435Z,0.70
2022-10-07T11:56:37.388Z,0.60
2022-10-07T11:59:43.343Z,0.80
2022-10-07T12:02:49.643Z,1.10
2022-10-07T12:06:07.001Z,1.30
2022-10-07T12:09:42.369Z,1.08
2022-10-07T12:12:49.795Z,0.60
2022-10-07T12:15:53.195Z,0.77
2022-10-07T12:19:17.971Z,0.75
2022-10-07T12:22:24.592Z,1.35
2022-10-07T12:25:31.939Z,0.98
2022-10-07T12:28:35.648Z,0.70
2022-10-07T12:31:46.440Z,0.60
2022-10-07T12:34:48.922Z,1.10
2022-10-07T12:38:02.399Z,0.75
2022-10-07T12:41:20.028Z,0.65
2022-10-07T12:44:24.026Z,1.05
2022-10-07T12:47:30.355Z,0.93
2022-10-07T12:50:33.549Z,1.10
2022-10-07T12:53:43.542Z,0.85
2022-10-07T12:56:46.699Z,0.90
2022-10-07T12:59:59.866Z,1.20
2022-10-07T13:03:30.394Z,0.88
2022-10-07T13:06:55.385Z,1.10
2022-10-07T13:10:25.673Z,0.90
2022-10-07T13:13:31.646Z,0.90
2022-10-07T13:16:40.217Z,1.35
2022-10-07T13:19:46.767Z,0.75
2022-10-07T13:22:49.602Z,1.08
2022-10-07T13:25:55.044Z,0.98
2022-10-07T13:28:59.032Z,0.90
2022-10-07T13:32:07.314Z,0.85
2022-10-07T13:35:29.812Z,1.10
2022-10-07T13:38:32.197Z,0.90
2022-10-07T13:41:37.018Z,1.00
2022-10-07T13:44:43.530Z,0.70
2022-10-07T13:47:46.960Z,0.88
2022-10-07T13:50:51.509Z,0.93
2022-10-07T13:53:56.129Z,0.80
2022-10-07T13:56:59.970Z,0.98
2022-10-07T14:00:04.214Z,0.80
2022-10-07T14:03:15.105Z,0.47
2022-10-07T14:06:36.353Z,0.63
2022-10-07T14:09:45.992Z,0.85
2022-10-07T14:12:52.028Z,1.30
2022-10-07T14:15:55.824Z,0.65
2022-10-07T14:18:58.261Z,0.95
2022-10-07T14:22:02.422Z,0.82
2022-10-07T14:25:06.598Z,0.90
2022-10-07T14:28:18.108Z,1.20
2022-10-07T14:35:02.129Z,1.15
2022-10-07T14:38:19.576Z,0.63
2022-10-07T14:41:23.166Z,1.60
2022-10-07T14:44:26.791Z,1.20
2022-10-07T14:47:31.281Z,0.68
2022-10-07T14:50:33.603Z,0.95
2022-10-07T14:53:37.392Z,0.60
2022-10-07T14:56:39.812Z,0.82
2022-10-07T14:59:43.488Z,1.00
2022-10-07T15:02:46.158Z,0.90
2022-10-07T15:05:48.961Z,0.70
2022-10-07T15:08:52.369Z,0.73
2022-10-07T15:11:54.623Z,1.75
2022-10-07T15:14:58.191Z,0.68
2022-10-07T15:18:00.331Z,0.80
2022-10-07T15:21:02.608Z,1.00
2022-10-07T15:24:05.007Z,0.60
2022-10-07T15:27:09.693Z,1.13
2022-10-07T15:30:13.870Z,0.70
2022-10-07T15:33:16.152Z,0.80
2022-10-07T15:36:18.376Z,0.95
2022-10-07T15:39:20.636Z,1.17
2022-10-07T15:42:24.160Z,0.70
2022-10-07T15:45:27.722Z,0.80
2022-10-07T15:48:30.070Z,0.98
2022-10-07T15:51:37.904Z,0.88
2022-10-07T15:54:40.396Z,1.88
2022-10-07T15:57:43.004Z,3.78
2022-10-07T16:01:09.524Z,3.63
2022-10-07T16:04:13.562Z,3.10
2022-10-07T16:07:16.196Z,1.20
2022-10-07T16:10:18.727Z,1.30
2022-10-07T16:13:22.687Z,3.13
2022-10-07T16:16:27.773Z,3.33
2022-10-07T16:19:30.089Z,1.10
2022-10-07T16:22:32.701Z,0.90
2022-10-07T16:25:35.334Z,1.02
2022-10-07T16:28:57.804Z,1.13
2022-10-07T16:32:02.099Z,1.10
2022-10-07T16:35:09.559Z,1.48
2022-10-07T16:38:12.521Z,1.00
2022-10-07T16:41:14.916Z,1.20
2022-10-07T16:44:17.128Z,0.95
2022-10-07T16:47:20.693Z,1.10
2022-10-07T16:50:23.404Z,0.98
2022-10-07T16:53:26.911Z,1.85
2022-10-07T16:56:30.072Z,1.92
2022-10-07T16:59:34.367Z,1.15
2022-10-07T17:02:38.044Z,1.30
2022-10-07T17:05:40.288Z,1.50
2022-10-07T17:08:47.436Z,1.20
2022-10-07T17:11:50.494Z,1.23
2022-10-07T17:14:52.691Z,1.83
2022-10-07T17:17:56.295Z,1.95
2022-10-07T17:20:59.479Z,2.13
2022-10-07T17:24:02.351Z,2.13
2022-10-07T17:27:07.344Z,2.17
2022-10-07T17:30:11.000Z,2.00
2022-10-07T17:33:16.817Z,1.60
2022-10-07T17:36:21.092Z,1.67
2022-10-07T17:39:23.277Z,1.73
2022-10-07T17:42:25.536Z,1.60
2022-10-07T17:45:28.441Z,2.55
2022-10-07T17:48:32.137Z,2.47
2022-10-07T17:51:34.707Z,2.20
2022-10-07T17:54:37.769Z,2.60
2022-10-07T17:57:39.961Z,2.38
2022-10-07T18:00:42.220Z,1.92
2022-10-07T18:03:50.550Z,2.33
2022-10-07T18:06:52.897Z,1.55
2022-10-07T18:09:55.178Z,2.03
2022-10-07T18:13:15.987Z,3.10
2022-10-07T18:16:19.226Z,3.17
2022-10-07T18:19:23.632Z,2.17
2022-10-07T18:22:25.821Z,3.58
2022-10-07T18:25:28.026Z,3.63
2022-10-07T18:28:32.403Z,3.20
2022-10-07T18:31:34.719Z,3.63
2022-10-07T18:34:38.563Z,2.75
2022-10-07T18:37:40.965Z,2.47
2022-10-07T18:40:43.201Z,3.33
2022-10-07T18:43:46.068Z,2.70
2022-10-07T18:46:50.796Z,2.50
2022-10-07T18:49:56.973Z,2.92
2022-10-07T18:53:00.665Z,2.55
2022-10-07T18:56:04.389Z,3.55
2022-10-07T18:59:06.595Z,4.13
2022-10-07T19:02:11.343Z,3.53
2022-10-07T19:05:15.086Z,2.83
2022-10-07T19:08:18.379Z,2.85
2022-10-07T19:11:20.604Z,2.25
2022-10-07T19:14:25.880Z,3.80
2022-10-07T19:17:28.129Z,3.83
2022-10-07T19:20:32.488Z,3.30
2022-10-07T19:23:34.741Z,2.92
2022-10-07T19:26:39.442Z,3.20
2022-10-07T19:29:41.676Z,3.25
2022-10-07T19:32:44.811Z,3.55
2022-10-07T19:35:53.244Z,2.85
2022-10-07T19:38:56.321Z,5.65
2022-10-07T19:42:01.727Z,3.10
2022-10-07T19:45:05.421Z,3.28
2022-10-07T19:48:13.826Z,3.15
2022-10-07T19:51:19.509Z,2.60
2022-10-07T19:54:21.785Z,2.00
2022-10-07T19:57:24.171Z,2.90
2022-10-07T20:00:28.712Z,1.90
2022-10-07T20:03:30.901Z,3.25
2022-10-07T20:06:36.820Z,2.85
2022-10-07T20:09:39.072Z,2.35
2022-10-07T20:12:41.617Z,3.00
2022-10-07T20:15:43.990Z,2.40
2022-10-07T20:18:47.953Z,3.28
2022-10-07T20:21:51.519Z,3.45
2022-10-07T20:24:53.693Z,4.13
2022-10-07T20:27:55.890Z,3.33
2022-10-07T20:31:02.258Z,2.58
2022-10-07T20:34:05.983Z,3.65
2022-10-07T20:37:09.509Z,3.65
2022-10-07T20:40:30.431Z,3.63
2022-10-07T20:43:32.675Z,2.83
2022-10-07T20:46:37.679Z,3.20
2022-10-07T20:49:41.846Z,4.20
2022-10-07T20:52:45.622Z,3.03
2022-10-07T20:55:48.023Z,3.20
2022-10-07T20:58:50.895Z,3.22
2022-10-07T21:01:53.806Z,3.80
2022-10-07T21:04:56.125Z,3.08
2022-10-07T21:07:59.651Z,3.65
2022-10-07T21:11:02.574Z,2.72
2022-10-07T21:14:04.750Z,2.25
2022-10-07T21:17:07.197Z,2.22
2022-10-07T21:20:09.849Z,1.88
2022-10-07T21:23:13.486Z,2.65
2022-10-07T21:26:16.451Z,2.83
2022-10-07T21:29:18.934Z,3.60
2022-10-07T21:32:21.181Z,3.22
2022-10-07T21:35:23.711Z,3.30
2022-10-07T21:38:27.793Z,2.22
2022-10-07T21:41:33.996Z,2.83
2022-10-07T21:44:36.283Z,5.35
2022-10-07T21:47:38.430Z,4.80
2022-10-07T21:50:40.721Z,4.10
2022-10-07T21:57:27.030Z,3.38
2022-10-07T22:01:04.511Z,3.30
2022-10-07T22:04:24.334Z,4.22
2022-10-07T22:11:29.024Z,1.90
2022-10-07T22:14:46.756Z,2.28
2022-10-07T22:17:54.026Z,1.73
2022-10-07T22:21:00.483Z,1.98
2022-10-07T22:24:15.244Z,1.58
2022-10-07T22:27:44.634Z,2.75
2022-10-07T22:30:54.392Z,1.40
2022-10-07T22:34:00.429Z,1.90
2022-10-07T22:37:05.484Z,1.73
2022-10-07T22:40:26.977Z,1.48
2022-10-07T22:43:36.569Z,1.90
2022-10-07T22:46:53.770Z,2.20
2022-10-07T22:50:19.332Z,1.50
2022-10-07T22:53:51.234Z,1.88
2022-10-07T22:57:51.402Z,1.58
2022-10-07T23:01:08.479Z,2.00
2022-10-07T23:04:32.322Z,1.63
2022-10-07T23:08:02.963Z,1.60
2022-10-07T23:11:31.237Z,1.30
2022-10-07T23:14:38.269Z,1.90
2022-10-07T23:17:47.234Z,1.75
2022-10-07T23:21:14.204Z,1.80
2022-10-07T23:24:38.283Z,1.40
2022-10-07T23:28:14.702Z,1.70
2022-10-07T23:31:45.753Z,1.38
2022-10-07T23:35:49.755Z,1.75
2022-10-07T23:42:57.843Z,1.43
2022-10-07T23:46:24.900Z,2.47
2022-10-07T23:49:27.865Z,1.83
2022-10-07T23:52:32.699Z,1.65
2022-10-07T23:55:38.903Z,2.35
2022-10-07T23:58:41.916Z,1.70
